RKTU/CHN METAR and TAF weather

Enter ICAO airport designator
Station Type Date Time Source
RKTU METAR 2021/06/24 05:00 UTC NOAA

RKTU 240500Z 27004KT 9999 SCT040 BKN250 28/19 Q1010


Station Type Date Time Source
RKTU Decoded METAR 2021/06/24 05:00 UTC NOAA

Chongju Ab, Korea, South (RKTU) 36-42N 127-30E 66M
Jun 24, 2021 - 01:00 AM EDT / 2021.06.24 0500 UTC
Wind: from the W (270 degrees) at 5 MPH (4 KT):0
Visibility: greater than 7 mile(s):0
Sky conditions: mostly cloudy
Temperature: 82 F (28 C)
Dew Point: 66 F (19 C)
Relative Humidity: 58%
Pressure (altimeter): 29.83 in. Hg (1010 hPa)
ob: RKTU 240500Z 27004KT 9999 SCT040 BKN250 28/19 Q1010
cycle: 5

Station Type Date Time Source
RKTU TAF 2021/06/24 06:21 UTC NOAA

TAF TAF RKTU 240500Z 2406/2512 15006KT 9999 SCT030 TX28/2407Z TN17/2421Z

Example: see airport list